Time;durP1;ratioP1;P1;durP2;ratioP2;P2;SDS_P1;SDS_P2;PMS_P1;PMS_P2;Temp;Humidity;BMP_temperature;BMP_pressure;BME280_temperature;BME280_humidity;BME280_pressure;Samples;Min_cycle;Max_cycle;Signal;HPM_P1;HPM_P2
2022/12/05 00:00:47;;;;;;;7.15;4.10;;;;;;;;;;4392026;32;66579;-64
2022/12/05 00:03:34;;;;;;;6.80;4.80;;;;;;;;;;4381202;32;59911;-64
2022/12/05 00:06:21;;;;;;;8.48;4.37;;;;;;;;;;4381304;32;69564;-65
2022/12/05 00:09:10;;;;;;;7.65;4.70;;;;;;;;;;4391981;32;68368;-64
2022/12/05 00:11:56;;;;;;;7.70;4.60;;;;;;;;;;4381405;32;67633;-65
2022/12/05 00:14:43;;;;;;;6.87;4.00;;;;;;;;;;4381289;32;71898;-65
2022/12/05 00:17:31;;;;;;;7.28;4.72;;;;;;;;;;4382732;32;65912;-65
2022/12/05 00:20:19;;;;;;;7.43;4.32;;;;;;;;;;4382635;32;67709;-65
2022/12/05 00:23:06;;;;;;;7.03;4.53;;;;;;;;;;4370830;32;60218;-65
2022/12/05 00:25:53;;;;;;;7.62;4.37;;;;;;;;;;4382634;32;71703;-65
2022/12/05 00:28:39;;;;;;;7.32;4.20;;;;;;;;;;4370190;32;66761;-64
2022/12/05 00:31:26;;;;;;;;;;;;;;;;;;4380814;32;67661;-64
2022/12/05 00:34:12;;;;;;;6.97;4.30;;;;;;;;;;4359663;32;60312;-64
2022/12/05 00:36:59;;;;;;;7.93;4.28;;;;;;;;;;4383334;32;69515;-64
2022/12/05 00:39:45;;;;;;;5.60;3.78;;;;;;;;;;4385001;32;68544;-65
2022/12/05 00:42:32;;;;;;;6.25;3.70;;;;;;;;;;4383703;32;67423;-65
2022/12/05 00:45:18;;;;;;;;;;;;;;;;;;4385572;32;71541;-65
2022/12/05 00:48:05;;;;;;;6.40;3.53;;;;;;;;;;4383811;32;70104;-65
2022/12/05 00:51:03;;;;;;;7.55;4.05;;;;;;;;;;4383159;32;68242;-64
2022/12/05 00:53:50;;;;;;;6.95;3.78;;;;;;;;;;4394331;32;67783;-64
2022/12/05 00:56:37;;;;;;;5.68;3.45;;;;;;;;;;4384833;32;70658;-65
2022/12/05 00:59:24;;;;;;;6.07;3.65;;;;;;;;;;4383448;32;66008;-65
2022/12/05 01:02:10;;;;;;;7.25;4.53;;;;;;;;;;4384837;32;67753;-65
2022/12/05 01:04:57;;;;;;;7.40;4.12;;;;;;;;;;4384928;32;59204;-65
2022/12/05 01:07:43;;;;;;;8.23;4.82;;;;;;;;;;4372048;32;71023;-64
2022/12/05 01:10:30;;;;;;;7.37;3.92;;;;;;;;;;4382871;32;70148;-65
2022/12/05 01:13:16;;;;;;;7.10;4.55;;;;;;;;;;4372582;32;67843;-65
2022/12/05 01:16:04;;;;;;;7.78;4.68;;;;;;;;;;4384802;32;60340;-66
2022/12/05 01:18:50;;;;;;;6.90;4.30;;;;;;;;;;4394022;32;70552;-65
2022/12/05 01:21:37;;;;;;;;;;;;;;;;;;4383578;32;69743;-64
2022/12/05 01:24:24;;;;;;;6.37;4.20;;;;;;;;;;4385932;32;66776;-65
2022/12/05 01:27:11;;;;;;;6.20;3.60;;;;;;;;;;4383353;32;72078;-65
2022/12/05 01:29:58;;;;;;;8.18;4.45;;;;;;;;;;4384015;32;65882;-65
2022/12/05 01:32:44;;;;;;;;;;;;;;;;;;4384392;32;67804;-65
2022/12/05 01:35:32;;;;;;;7.07;4.07;;;;;;;;;;4372576;32;60442;-64
2022/12/05 01:38:19;;;;;;;7.90;4.32;;;;;;;;;;4393998;32;71918;-65
2022/12/05 01:41:06;;;;;;;;;;;;;;;;;;4383457;32;64919;-65
2022/12/05 01:44:02;;;;;;;8.07;4.10;;;;;;;;;;4383209;32;68099;-64
2022/12/05 01:46:50;;;;;;;7.15;4.50;;;;;;;;;;4372300;32;59555;-65
2022/12/05 01:49:40;;;;;;;5.43;3.62;;;;;;;;;;4393116;32;70697;-65
2022/12/05 01:52:28;;;;;;;8.98;4.90;;;;;;;;;;4382890;32;69271;-64
2022/12/05 01:55:17;;;;;;;6.93;3.95;;;;;;;;;;4393497;32;67886;-65
2022/12/05 01:58:05;;;;;;;7.28;4.18;;;;;;;;;;4360850;32;72331;-65
2022/12/05 02:00:52;;;;;;;6.40;3.95;;;;;;;;;;4382586;32;66921;-65
2022/12/05 02:03:40;;;;;;;8.88;4.55;;;;;;;;;;4382706;32;69529;-65
2022/12/05 02:06:27;;;;;;;6.70;3.90;;;;;;;;;;4382714;32;67742;-65
2022/12/05 02:09:14;;;;;;;8.02;3.70;;;;;;;;;;4393193;32;70762;-64
2022/12/05 02:12:01;;;;;;;;;;;;;;;;;;4383379;32;65186;-66
2022/12/05 02:15:10;;;;;;;6.05;3.72;;;;;;;;;;4372312;32;67762;-64
2022/12/05 02:18:14;;;;;;;6.53;3.53;;;;;;;;;;4382253;32;61057;-65
2022/12/05 02:21:06;;;;;;;8.18;4.62;;;;;;;;;;4371273;32;71247;-65
2022/12/05 02:24:05;;;;;;;6.87;4.05;;;;;;;;;;4371779;32;69208;-65
2022/12/05 02:27:05;;;;;;;7.95;4.53;;;;;;;;;;4381754;32;67097;-65
2022/12/05 02:30:07;;;;;;;5.43;3.50;;;;;;;;;;4371607;32;60556;-64
2022/12/05 02:33:10;;;;;;;6.47;3.65;;;;;;;;;;4392950;32;70453;-65
2022/12/05 02:36:04;;;;;;;6.25;3.70;;;;;;;;;;4384010;32;69149;-65
2022/12/05 02:39:15;;;;;;;7.10;3.97;;;;;;;;;;4382200;32;66772;-66
2022/12/05 02:42:15;;;;;;;7.70;4.10;;;;;;;;;;4382178;32;71572;-64
2022/12/05 02:45:10;;;;;;;7.80;4.43;;;;;;;;;;4382121;32;65906;-65
2022/12/05 02:47:57;;;;;;;8.80;4.10;;;;;;;;;;4383567;32;68169;-64
2022/12/05 02:50:44;;;;;;;7.72;4.32;;;;;;;;;;4383438;32;60045;-64
2022/12/05 02:53:30;;;;;;;;;;;;;;;;;;4382252;32;70690;-66
2022/12/05 02:56:17;;;;;;;5.95;3.83;;;;;;;;;;4382850;32;65991;-65
2022/12/05 02:59:04;;;;;;;;;;;;;;;;;;4382223;32;67109;-65
2022/12/05 03:01:51;;;;;;;7.25;4.28;;;;;;;;;;4382475;32;59953;-65
2022/12/05 03:04:38;;;;;;;7.97;4.25;;;;;;;;;;4370541;32;70160;-64
2022/12/05 03:07:25;;;;;;;6.00;3.58;;;;;;;;;;4381941;32;69484;-64
2022/12/05 03:10:13;;;;;;;8.52;4.22;;;;;;;;;;4381178;32;68269;-64
2022/12/05 03:13:09;;;;;;;7.57;4.70;;;;;;;;;;4392427;32;71870;-64
2022/12/05 03:16:04;;;;;;;7.18;4.57;;;;;;;;;;4383511;32;66073;-64
2022/12/05 03:18:55;;;;;;;8.77;4.70;;;;;;;;;;4371299;32;68391;-64
2022/12/05 03:21:54;;;;;;;7.87;4.20;;;;;;;;;;4383162;32;66986;-65
2022/12/05 03:24:42;;;;;;;7.15;4.32;;;;;;;;;;4381518;32;71809;-65
2022/12/05 03:27:56;;;;;;;7.28;3.85;;;;;;;;;;4392720;32;64770;-64
2022/12/05 03:30:43;;;;;;;8.52;4.18;;;;;;;;;;4381956;32;67936;-66
2022/12/05 03:33:34;;;;;;;7.15;4.50;;;;;;;;;;4382065;32;59155;-65
2022/12/05 03:36:27;;;;;;;7.75;4.12;;;;;;;;;;4370959;32;70711;-65
2022/12/05 03:39:22;;;;;;;9.02;4.43;;;;;;;;;;4370363;32;69762;-64
2022/12/05 03:42:15;;;;;;;8.60;4.80;;;;;;;;;;4371104;32;66768;-65
2022/12/05 03:45:14;;;;;;;8.57;4.55;;;;;;;;;;4392491;32;59100;-65
2022/12/05 03:48:13;;;;;;;9.57;4.75;;;;;;;;;;4381504;32;70322;-65
2022/12/05 03:51:00;;;;;;;9.63;4.78;;;;;;;;;;4370343;32;68987;-65
2022/12/05 03:53:55;;;;;;;8.13;4.70;;;;;;;;;;4392093;32;67839;-65
2022/12/05 03:56:48;;;;;;;9.13;5.25;;;;;;;;;;4381495;32;71678;-64
2022/12/05 03:59:45;;;;;;;8.27;5.50;;;;;;;;;;4370825;32;64841;-65
2022/12/05 04:02:31;;;;;;;8.27;5.12;;;;;;;;;;4370809;32;68183;-64
2022/12/05 04:05:43;;;;;;;8.27;4.93;;;;;;;;;;4383125;32;60190;-65
2022/12/05 04:08:34;;;;;;;8.65;5.18;;;;;;;;;;4380497;32;70435;-64
2022/12/05 04:11:24;;;;;;;9.40;4.90;;;;;;;;;;4370654;32;65863;-65
2022/12/05 04:14:17;;;;;;;9.98;5.65;;;;;;;;;;4395031;32;67035;-66
2022/12/05 04:17:12;;;;;;;14.00;5.37;;;;;;;;;;4384422;32;60454;-65
2022/12/05 04:23:10;;;;;;;12.88;5.85;;;;;;;;;;4385058;32;68957;-64
2022/12/05 04:25:59;;;;;;;12.93;6.35;;;;;;;;;;4373341;32;67970;-65
2022/12/05 04:28:56;;;;;;;8.15;5.05;;;;;;;;;;4394588;32;71929;-65
2022/12/05 04:31:43;;;;;;;10.50;5.67;;;;;;;;;;4394541;32;65728;-65
2022/12/05 04:34:31;;;;;;;13.62;5.05;;;;;;;;;;4394647;32;67747;-64
2022/12/05 04:37:22;;;;;;;8.82;4.80;;;;;;;;;;4384413;32;67494;-65
2022/12/05 04:40:23;;;;;;;9.45;4.93;;;;;;;;;;4385268;32;71088;-65
2022/12/05 04:43:11;;;;;;;7.87;4.53;;;;;;;;;;4397168;32;65048;-65
2022/12/05 04:45:59;;;;;;;7.78;4.65;;;;;;;;;;4384861;32;66966;-64
2022/12/05 04:48:49;;;;;;;9.10;5.00;;;;;;;;;;4385532;32;59280;-65
2022/12/05 04:51:37;;;;;;;8.60;4.93;;;;;;;;;;4374128;32;70383;-66
2022/12/05 04:54:31;;;;;;;7.70;4.85;;;;;;;;;;4394417;32;68304;-65
2022/12/05 04:57:25;;;;;;;8.35;4.22;;;;;;;;;;4382884;32;67336;-65
2022/12/05 05:00:12;;;;;;;8.55;4.85;;;;;;;;;;4372483;32;71919;-65
2022/12/05 05:03:07;;;;;;;8.48;3.65;;;;;;;;;;4383175;32;71073;-64
2022/12/05 05:05:55;;;;;;;6.72;4.22;;;;;;;;;;4383364;32;69586;-65
2022/12/05 05:08:50;;;;;;;8.07;4.60;;;;;;;;;;4383357;32;66675;-66
2022/12/05 05:11:37;;;;;;;7.32;4.47;;;;;;;;;;4394169;32;70831;-65
2022/12/05 05:14:24;;;;;;;10.07;5.20;;;;;;;;;;4394049;32;65672;-65
2022/12/05 05:17:10;;;;;;;8.10;4.65;;;;;;;;;;4383313;32;66912;-64
2022/12/05 05:20:22;;;;;;;10.30;4.70;;;;;;;;;;4382890;32;60176;-64
2022/12/05 05:23:04;;;;;;;8.82;4.80;;;;;;;;;;4371484;32;70052;-65
2022/12/05 05:25:55;;;;;;;7.15;4.25;;;;;;;;;;4394270;32;68365;-64
2022/12/05 05:28:42;;;;;;;7.57;4.95;;;;;;;;;;4384713;32;67928;-65
2022/12/05 05:31:29;;;;;;;6.90;4.30;;;;;;;;;;4372909;32;59920;-64
2022/12/05 05:34:15;;;;;;;6.30;4.10;;;;;;;;;;4382501;32;70295;-64
2022/12/05 05:37:03;;;;;;;7.78;4.47;;;;;;;;;;4393755;32;69112;-65
2022/12/05 05:39:49;;;;;;;6.05;3.65;;;;;;;;;;4372526;32;67698;-64
2022/12/05 05:42:35;;;;;;;7.28;4.35;;;;;;;;;;4383113;32;71632;-65
2022/12/05 05:45:22;;;;;;;7.95;4.60;;;;;;;;;;4383138;32;64871;-65
2022/12/05 05:48:09;;;;;;;7.32;4.22;;;;;;;;;;4383164;32;67772;-65
2022/12/05 05:50:57;;;;;;;12.35;4.03;;;;;;;;;;4382561;32;67546;-64
2022/12/05 05:53:44;;;;;;;7.35;4.55;;;;;;;;;;4371494;32;69151;-65
2022/12/05 05:56:31;;;;;;;8.60;5.05;;;;;;;;;;4382190;32;63982;-65
2022/12/05 05:59:17;;;;;;;9.02;5.50;;;;;;;;;;4383042;32;66963;-64
2022/12/05 06:02:04;;;;;;;14.77;5.35;;;;;;;;;;4393855;32;60076;-63
2022/12/05 06:04:50;;;;;;;;;;;;;;;;;;4393711;32;69752;-65
2022/12/05 06:07:37;;;;;;;9.98;5.37;;;;;;;;;;4372019;32;68275;-65
2022/12/05 06:10:23;;;;;;;9.52;5.30;;;;;;;;;;4393157;32;66377;-64
2022/12/05 06:13:10;;;;;;;8.80;5.25;;;;;;;;;;4383821;32;72009;-65
2022/12/05 06:15:58;;;;;;;;;;;;;;;;;;4382687;32;70696;-66
2022/12/05 06:18:44;;;;;;;9.20;5.63;;;;;;;;;;4382498;32;69645;-64
2022/12/05 06:21:31;;;;;;;9.27;5.30;;;;;;;;;;4383625;32;67951;-65
2022/12/05 06:24:17;;;;;;;10.25;5.43;;;;;;;;;;4383598;32;71097;-64
2022/12/05 06:27:04;;;;;;;10.07;5.32;;;;;;;;;;4381733;32;63630;-65
2022/12/05 06:29:51;;;;;;;9.68;5.30;;;;;;;;;;4382263;32;67798;-65
2022/12/05 06:32:38;;;;;;;11.05;5.80;;;;;;;;;;4392990;32;59043;-64
2022/12/05 06:35:25;;;;;;;;;;;;;;;;;;4359994;32;70110;-66
2022/12/05 06:38:12;;;;;;;10.70;6.28;;;;;;;;;;4382398;32;69815;-65
2022/12/05 06:40:59;;;;;;;9.25;5.07;;;;;;;;;;4382258;32;68065;-65
2022/12/05 06:43:46;;;;;;;10.48;5.40;;;;;;;;;;4381768;32;60769;-64
2022/12/05 06:46:32;;;;;;;12.65;7.43;;;;;;;;;;4392872;32;70798;-64
2022/12/05 06:49:19;;;;;;;9.82;5.90;;;;;;;;;;4371133;32;69412;-65
2022/12/05 06:52:06;;;;;;;9.98;5.50;;;;;;;;;;4381442;32;67047;-64
2022/12/05 06:54:52;;;;;;;13.32;6.70;;;;;;;;;;4370884;32;72543;-64
2022/12/05 06:57:39;;;;;;;9.45;5.72;;;;;;;;;;4382010;32;64867;-64
2022/12/05 07:03:31;;;;;;;14.55;7.95;;;;;;;;;;4382020;32;60090;-65
2022/12/05 07:06:17;;;;;;;11.77;6.82;;;;;;;;;;4382021;32;71217;-64
2022/12/05 07:09:04;;;;;;;12.45;6.70;;;;;;;;;;4383237;32;65770;-65
2022/12/05 07:11:49;;;;;;;10.27;6.10;;;;;;;;;;3847514;37;43877;-66
2022/12/05 07:14:37;;;;;;;8.48;5.82;;;;;;;;;;4399701;32;59944;-64
2022/12/05 07:17:24;;;;;;;9.52;5.70;;;;;;;;;;4409920;32;70760;-65
2022/12/05 07:20:11;;;;;;;8.48;5.40;;;;;;;;;;4398171;32;69943;-64
2022/12/05 07:22:57;;;;;;;;;;;;;;;;;;4409861;32;66864;-65
2022/12/05 07:25:44;;;;;;;9.10;4.12;;;;;;;;;;4409535;32;71136;-65
2022/12/05 07:28:31;;;;;;;7.65;5.07;;;;;;;;;;4376899;32;66040;-64
2022/12/05 07:31:21;;;;;;;8.73;4.70;;;;;;;;;;4409554;32;67428;-65
2022/12/05 07:34:08;;;;;;;9.48;5.47;;;;;;;;;;4399008;32;60119;-65
2022/12/05 07:36:55;;;;;;;10.73;5.43;;;;;;;;;;4409276;32;70879;-64
2022/12/05 07:39:41;;;;;;;9.82;5.15;;;;;;;;;;4409339;32;64919;-64
2022/12/05 07:42:28;;;;;;;9.57;5.45;;;;;;;;;;4410694;32;67534;-64
2022/12/05 07:45:14;;;;;;;9.18;4.43;;;;;;;;;;4398166;32;60494;-65
2022/12/05 07:48:01;;;;;;;8.00;4.82;;;;;;;;;;4397569;32;70115;-64
2022/12/05 07:50:48;;;;;;;10.73;5.05;;;;;;;;;;4409041;32;69611;-64
2022/12/05 07:53:35;;;;;;;4.80;3.15;;;;;;;;;;4409053;32;66634;-64
2022/12/05 07:56:21;;;;;;;;;;;;;;;;;;4409388;32;70765;-65
2022/12/05 07:59:14;;;;;;;7.60;4.68;;;;;;;;;;4410922;32;66353;-64
2022/12/05 08:02:01;;;;;;;5.97;3.72;;;;;;;;;;4409279;32;69316;-63
2022/12/05 08:04:47;;;;;;;9.73;4.93;;;;;;;;;;4398206;32;67444;-64
2022/12/05 08:07:34;;;;;;;12.88;5.57;;;;;;;;;;4397352;32;71462;-64
2022/12/05 08:10:21;;;;;;;7.03;3.78;;;;;;;;;;4376183;32;64964;-65
2022/12/05 08:13:08;;;;;;;7.05;4.03;;;;;;;;;;4410159;32;66627;-64
2022/12/05 08:15:55;;;;;;;;;;;;;;;;;;4411008;32;59294;-65
2022/12/05 08:18:42;;;;;;;14.52;6.18;;;;;;;;;;4398429;32;70071;-65
2022/12/05 08:21:29;;;;;;;8.57;4.62;;;;;;;;;;4405931;32;68388;-64
2022/12/05 08:24:15;;;;;;;9.45;5.32;;;;;;;;;;4399635;32;67922;-65
2022/12/05 08:27:03;;;;;;;;;;;;;;;;;;4390205;32;59202;-65
2022/12/05 08:29:51;;;;;;;10.30;5.25;;;;;;;;;;4400585;32;69288;-65
2022/12/05 08:32:38;;;;;;;8.55;5.47;;;;;;;;;;4369288;32;66885;-65
2022/12/05 08:35:25;;;;;;;8.98;4.95;;;;;;;;;;4401855;32;67721;-64
2022/12/05 08:38:12;;;;;;;8.85;5.10;;;;;;;;;;4377315;32;72413;-64
2022/12/05 08:41:03;;;;;;;8.93;5.37;;;;;;;;;;4387688;32;64178;-64
2022/12/05 08:43:50;;;;;;;9.07;5.65;;;;;;;;;;4388255;32;67297;-64
2022/12/05 08:46:38;;;;;;;10.60;5.68;;;;;;;;;;4388328;32;60296;-65
2022/12/05 08:49:25;;;;;;;8.10;4.57;;;;;;;;;;4387596;32;70684;-64
2022/12/05 08:52:11;;;;;;;8.63;5.37;;;;;;;;;;4388011;32;64940;-64
2022/12/05 08:54:58;;;;;;;7.15;5.37;;;;;;;;;;4387325;32;68592;-64
2022/12/05 08:57:44;;;;;;;9.02;4.97;;;;;;;;;;4387449;32;57735;-65
2022/12/05 09:00:31;;;;;;;9.82;5.72;;;;;;;;;;4376388;32;70665;-66
2022/12/05 09:03:18;;;;;;;9.38;4.80;;;;;;;;;;4387605;32;68225;-65
2022/12/05 09:06:20;;;;;;;8.02;4.50;;;;;;;;;;4398259;32;66735;-64
2022/12/05 09:09:10;;;;;;;9.13;5.47;;;;;;;;;;4387262;32;71290;-63
2022/12/05 09:11:57;;;;;;;8.25;4.55;;;;;;;;;;4387707;32;65061;-64
2022/12/05 09:14:44;;;;;;;8.38;5.37;;;;;;;;;;4399354;32;67403;-65
2022/12/05 09:17:31;;;;;;;8.35;5.62;;;;;;;;;;4377211;32;66545;-67
2022/12/05 09:20:17;;;;;;;12.52;5.72;;;;;;;;;;4387304;32;71961;-64
2022/12/05 09:23:07;;;;;;;10.27;5.65;;;;;;;;;;4376835;32;66854;-64
2022/12/05 09:25:56;;;;;;;9.38;5.12;;;;;;;;;;4387873;32;67425;-66
2022/12/05 09:28:44;;;;;;;10.82;5.43;;;;;;;;;;4377367;32;60106;-64
2022/12/05 09:31:30;;;;;;;9.00;4.53;;;;;;;;;;4387018;32;70700;-64
2022/12/05 09:34:19;;;;;;;10.85;5.45;;;;;;;;;;4386401;32;68570;-64
2022/12/05 09:37:06;;;;;;;7.55;4.28;;;;;;;;;;4387380;32;67722;-65
2022/12/05 09:39:53;;;;;;;7.07;4.97;;;;;;;;;;4365861;32;61095;-65
2022/12/05 09:42:48;;;;;;;10.13;5.55;;;;;;;;;;4397092;32;70689;-65
2022/12/05 09:45:45;;;;;;;7.57;4.05;;;;;;;;;;4376411;32;68395;-64
2022/12/05 09:48:33;;;;;;;8.57;5.80;;;;;;;;;;4376203;32;66241;-66
2022/12/05 09:51:20;;;;;;;9.35;5.72;;;;;;;;;;4375798;32;72473;-65
2022/12/05 09:54:09;;;;;;;8.15;5.45;;;;;;;;;;4397187;32;65458;-65
2022/12/05 09:56:56;;;;;;;8.57;5.75;;;;;;;;;;4397766;32;66596;-65
2022/12/05 09:59:43;;;;;;;9.95;4.95;;;;;;;;;;4397759;32;59201;-65
2022/12/05 10:02:46;;;;;;;10.85;6.18;;;;;;;;;;4385758;32;69317;-65
2022/12/05 10:05:55;;;;;;;10.57;6.10;;;;;;;;;;4397580;32;65593;-65
2022/12/05 10:08:50;;;;;;;8.68;5.72;;;;;;;;;;4386576;32;66396;-66
2022/12/05 10:12:19;;;;;;;11.00;5.80;;;;;;;;;;4397342;32;59979;-65
2022/12/05 10:15:16;;;;;;;11.35;6.30;;;;;;;;;;4360770;32;71586;-64
2022/12/05 10:18:43;;;;;;;8.52;5.32;;;;;;;;;;4397368;32;69009;-65
2022/12/05 10:21:55;;;;;;;12.40;5.65;;;;;;;;;;4386471;32;67740;-64
2022/12/05 10:24:52;;;;;;;6.80;4.25;;;;;;;;;;4375567;32;72383;-65
2022/12/05 10:27:51;;;;;;;11.00;5.05;;;;;;;;;;4386292;32;65911;-66
2022/12/05 10:30:40;;;;;;;10.77;6.18;;;;;;;;;;4386615;32;67225;-64
2022/12/05 10:33:33;;;;;;;9.35;5.10;;;;;;;;;;4398435;32;67684;-65
2022/12/05 10:36:19;;;;;;;10.75;4.93;;;;;;;;;;4375305;32;71201;-65
2022/12/05 10:39:06;;;;;;;12.73;4.82;;;;;;;;;;4385990;32;66601;-64
2022/12/05 10:41:55;;;;;;;8.98;5.37;;;;;;;;;;4386536;32;66646;-64
2022/12/05 10:44:42;;;;;;;8.77;4.60;;;;;;;;;;4397174;32;60076;-64
2022/12/05 10:47:30;;;;;;;8.00;4.80;;;;;;;;;;4386454;32;70465;-65
2022/12/05 10:50:19;;;;;;;10.02;4.43;;;;;;;;;;4396939;32;69544;-65
2022/12/05 10:53:06;;;;;;;7.28;4.30;;;;;;;;;;4396929;32;67696;-64
2022/12/05 10:55:54;;;;;;;9.82;5.87;;;;;;;;;;4396626;32;72245;-65
2022/12/05 10:58:55;;;;;;;8.02;5.30;;;;;;;;;;4375418;32;69606;-64
2022/12/05 11:01:50;;;;;;;8.35;5.40;;;;;;;;;;4396963;32;69616;-64
2022/12/05 11:04:44;;;;;;;13.60;6.85;;;;;;;;;;4386217;32;67244;-65
2022/12/05 11:07:44;;;;;;;11.48;6.57;;;;;;;;;;4374218;32;70832;-64
2022/12/05 11:10:36;;;;;;;11.60;6.53;;;;;;;;;;4395965;32;65820;-64
2022/12/05 11:13:24;;;;;;;7.80;5.07;;;;;;;;;;4385391;32;67849;-65
2022/12/05 11:16:24;;;;;;;13.10;5.43;;;;;;;;;;4386308;32;60321;-65
2022/12/05 11:19:30;;;;;;;9.27;5.53;;;;;;;;;;4385178;32;71257;-66
2022/12/05 11:22:17;;;;;;;7.90;5.23;;;;;;;;;;4396606;32;69219;-64
2022/12/05 11:25:30;;;;;;;8.82;5.72;;;;;;;;;;4385385;32;68355;-64
2022/12/05 11:28:27;;;;;;;10.60;5.70;;;;;;;;;;4385475;32;60803;-65
2022/12/05 11:31:25;;;;;;;8.00;4.93;;;;;;;;;;4384996;32;71187;-64
2022/12/05 11:34:16;;;;;;;8.48;5.18;;;;;;;;;;4396380;32;68998;-64
2022/12/05 11:37:13;;;;;;;7.07;4.62;;;;;;;;;;4396326;32;66892;-64
2022/12/05 11:40:00;;;;;;;;;;;;;;;;;;4375092;32;72587;-65
2022/12/05 11:42:52;;;;;;;8.60;5.97;;;;;;;;;;4385752;32;65996;-64
2022/12/05 11:46:08;;;;;;;8.10;5.30;;;;;;;;;;4396765;32;67537;-65
2022/12/05 11:49:15;;;;;;;12.35;6.50;;;;;;;;;;4374801;32;58929;-64
2022/12/05 11:52:47;;;;;;;9.38;4.80;;;;;;;;;;4397418;32;71882;-64
2022/12/05 11:55:58;;;;;;;8.30;5.03;;;;;;;;;;4386773;32;64784;-65
2022/12/05 11:58:45;;;;;;;10.73;6.03;;;;;;;;;;4387792;32;67469;-64
2022/12/05 12:02:08;;;;;;;10.73;6.33;;;;;;;;;;4387690;32;59160;-64
2022/12/05 12:05:15;;;;;;;10.63;5.57;;;;;;;;;;4399926;32;70626;-65
2022/12/05 12:08:16;;;;;;;12.57;5.32;;;;;;;;;;4387928;32;69146;-65
2022/12/05 12:11:12;;;;;;;14.30;7.93;;;;;;;;;;4398200;32;67502;-64
2022/12/05 12:14:19;;;;;;;14.87;7.83;;;;;;;;;;4387377;32;72262;-64
2022/12/05 12:17:34;;;;;;;9.18;6.37;;;;;;;;;;4398181;32;70059;-64
2022/12/05 12:20:41;;;;;;;10.20;6.00;;;;;;;;;;4399846;32;69546;-66
2022/12/05 12:23:53;;;;;;;12.70;6.53;;;;;;;;;;4388247;32;67676;-64
2022/12/05 12:26:46;;;;;;;10.73;6.87;;;;;;;;;;4373224;32;71674;-65
2022/12/05 12:29:55;;;;;;;11.40;6.65;;;;;;;;;;4387067;32;65894;-65
2022/12/05 12:33:08;;;;;;;8.98;5.75;;;;;;;;;;4387598;32;67292;-64
2022/12/05 12:36:04;;;;;;;8.55;5.35;;;;;;;;;;4398617;32;60390;-65
2022/12/05 12:39:24;;;;;;;9.50;5.22;;;;;;;;;;4386885;32;71042;-65
2022/12/05 12:42:25;;;;;;;10.18;6.80;;;;;;;;;;4398384;32;69492;-64
2022/12/05 12:45:30;;;;;;;10.55;6.78;;;;;;;;;;4399645;32;68117;-66
2022/12/05 12:48:35;;;;;;;10.38;6.60;;;;;;;;;;4398185;32;59905;-64
2022/12/05 12:51:21;;;;;;;10.50;5.80;;;;;;;;;;4397593;32;70417;-64
2022/12/05 12:54:39;;;;;;;10.30;5.93;;;;;;;;;;4398538;32;68961;-66
2022/12/05 12:57:35;;;;;;;11.70;7.40;;;;;;;;;;4386654;32;68166;-64
2022/12/05 13:00:37;;;;;;;13.38;6.55;;;;;;;;;;4398299;32;70898;-65
2022/12/05 13:03:50;;;;;;;11.98;6.35;;;;;;;;;;4386818;32;64028;-65
2022/12/05 13:06:41;;;;;;;10.13;6.30;;;;;;;;;;4387508;32;67072;-64
2022/12/05 13:09:39;;;;;;;11.38;5.90;;;;;;;;;;4397284;32;60747;-64
2022/12/05 13:12:31;;;;;;;9.23;5.78;;;;;;;;;;4397760;32;71032;-64
2022/12/05 13:15:46;;;;;;;9.13;6.00;;;;;;;;;;4386945;32;68723;-64
2022/12/05 13:18:33;;;;;;;8.82;5.32;;;;;;;;;;4399051;32;67671;-64
2022/12/05 13:21:19;;;;;;;;;;;;;;;;;;4387333;32;60448;-64
2022/12/05 13:24:10;;;;;;;9.18;5.35;;;;;;;;;;4386528;32;70589;-64
2022/12/05 13:27:01;;;;;;;7.07;4.78;;;;;;;;;;4386850;32;68013;-66
2022/12/05 13:30:00;;;;;;;9.40;5.10;;;;;;;;;;4386492;32;66690;-65
2022/12/05 13:32:47;;;;;;;9.50;6.18;;;;;;;;;;4397600;32;70406;-68
2022/12/05 13:42:13;;;;;;;8.52;4.70;;;;;;;;;;4397933;32;66830;-65
2022/12/05 13:45:14;;;;;;;8.93;5.43;;;;;;;;;;4397848;32;71578;-66
2022/12/05 13:48:18;;;;;;;11.35;6.62;;;;;;;;;;4387300;32;64686;-66
2022/12/05 13:51:22;;;;;;;10.77;5.57;;;;;;;;;;4397375;32;68140;-66
2022/12/05 13:54:17;;;;;;;10.70;6.50;;;;;;;;;;4387234;32;59360;-65
2022/12/05 13:57:04;;;;;;;9.82;5.80;;;;;;;;;;4386621;32;70589;-65
2022/12/05 14:00:22;;;;;;;8.95;6.10;;;;;;;;;;4375479;32;68745;-66
2022/12/05 14:03:37;;;;;;;10.63;5.32;;;;;;;;;;4398648;32;66731;-66
2022/12/05 14:06:38;;;;;;;11.45;7.18;;;;;;;;;;4397306;32;59266;-66
2022/12/05 14:09:29;;;;;;;11.00;6.57;;;;;;;;;;4396361;32;70536;-67
2022/12/05 14:12:15;;;;;;;10.07;5.72;;;;;;;;;;4397134;32;69639;-65
2022/12/05 14:15:02;;;;;;;9.13;5.93;;;;;;;;;;4398695;32;67175;-64
2022/12/05 14:18:01;;;;;;;9.07;5.32;;;;;;;;;;4397287;32;71705;-64
2022/12/05 14:21:06;;;;;;;10.18;6.03;;;;;;;;;;4396812;32;65755;-64
2022/12/05 14:24:17;;;;;;;10.98;5.43;;;;;;;;;;4397051;32;67619;-64
2022/12/05 14:27:27;;;;;;;8.02;4.80;;;;;;;;;;4398686;32;60173;-65
2022/12/05 14:30:29;;;;;;;8.32;5.20;;;;;;;;;;4396506;32;70909;-63
2022/12/05 14:33:16;;;;;;;9.60;6.97;;;;;;;;;;4396970;32;65884;-65
2022/12/05 14:36:12;;;;;;;9.95;5.60;;;;;;;;;;4385631;32;68468;-65
2022/12/05 14:38:59;;;;;;;9.88;5.55;;;;;;;;;;4375651;32;57689;-65
2022/12/05 14:41:46;;;;;;;12.10;7.18;;;;;;;;;;4396885;32;70459;-63
2022/12/05 14:44:33;;;;;;;10.98;6.25;;;;;;;;;;4396953;32;69258;-64
2022/12/05 14:47:26;;;;;;;11.75;6.47;;;;;;;;;;4385744;32;68254;-64
2022/12/05 14:50:33;;;;;;;11.70;6.75;;;;;;;;;;4396806;32;71855;-64
2022/12/05 14:53:34;;;;;;;12.05;6.70;;;;;;;;;;4397160;32;64920;-64
2022/12/05 14:56:24;;;;;;;12.82;7.05;;;;;;;;;;4398001;32;69626;-63
2022/12/05 14:59:25;;;;;;;11.20;6.78;;;;;;;;;;4397098;32;67848;-64
2022/12/05 15:02:28;;;;;;;12.37;7.22;;;;;;;;;;4386185;32;72092;-63
2022/12/05 15:05:20;;;;;;;11.52;7.20;;;;;;;;;;4385630;32;67332;-63
2022/12/05 15:08:08;;;;;;;10.60;6.07;;;;;;;;;;4396723;32;67247;-64
2022/12/05 15:10:55;;;;;;;10.90;6.82;;;;;;;;;;4396915;32;60173;-63
2022/12/05 15:13:41;;;;;;;12.65;7.30;;;;;;;;;;4385915;32;69673;-63
2022/12/05 15:16:29;;;;;;;13.13;8.20;;;;;;;;;;4396646;32;69243;-63
2022/12/05 15:19:32;;;;;;;13.40;7.55;;;;;;;;;;4386069;32;66386;-64
2022/12/05 15:22:21;;;;;;;10.98;6.55;;;;;;;;;;4385775;32;60765;-69
2022/12/05 15:25:35;;;;;;;10.65;5.87;;;;;;;;;;4386049;32;70729;-64
2022/12/05 15:29:22;;;;;;;11.98;6.53;;;;;;;;;;3869341;36;43745;-64
2022/12/05 15:32:12;;;;;;;13.00;6.70;;;;;;;;;;4390780;32;62278;-64
2022/12/05 15:35:07;;;;;;;11.12;7.53;;;;;;;;;;4404623;32;69573;-64
2022/12/05 15:38:08;;;;;;;13.43;8.00;;;;;;;;;;4418207;32;69290;-63
2022/12/05 15:40:54;;;;;;;14.07;9.18;;;;;;;;;;4407861;32;67783;-64
2022/12/05 15:43:41;;;;;;;;;;;;;;;;;;4418594;32;70974;-63
2022/12/05 15:46:28;;;;;;;14.32;8.80;;;;;;;;;;4404325;32;66068;-64
2022/12/05 15:49:23;;;;;;;16.70;8.85;;;;;;;;;;4391761;32;66263;-64
2022/12/05 15:52:29;;;;;;;13.68;7.78;;;;;;;;;;4415164;32;59367;-63
2022/12/05 15:55:30;;;;;;;14.85;8.52;;;;;;;;;;4403735;32;71994;-63
2022/12/05 15:58:34;;;;;;;15.23;8.95;;;;;;;;;;4414872;32;65812;-64
2022/12/05 16:01:22;;;;;;;15.90;9.77;;;;;;;;;;4432695;32;67914;-64
2022/12/05 16:04:20;;;;;;;18.12;10.20;;;;;;;;;;4398319;32;60805;-64
2022/12/05 16:07:10;;;;;;;18.42;9.95;;;;;;;;;;4435758;32;70146;-64
2022/12/05 16:09:58;;;;;;;13.30;8.60;;;;;;;;;;4418122;32;69478;-63
2022/12/05 16:12:45;;;;;;;13.55;7.53;;;;;;;;;;4403087;32;67353;-65
2022/12/05 16:15:32;;;;;;;15.65;8.52;;;;;;;;;;4374782;32;72155;-63
2022/12/05 16:18:29;;;;;;;17.05;9.43;;;;;;;;;;4399116;32;65903;-65
2022/12/05 16:21:37;;;;;;;15.45;9.57;;;;;;;;;;4387926;32;68937;-65
2022/12/05 16:24:29;;;;;;;15.55;9.68;;;;;;;;;;4398453;32;67943;-64
2022/12/05 16:27:24;;;;;;;16.87;9.65;;;;;;;;;;4395489;32;72789;-64
2022/12/05 16:30:22;;;;;;;14.60;9.13;;;;;;;;;;4398658;32;65876;-63
2022/12/05 16:33:16;;;;;;;16.20;8.95;;;;;;;;;;4385204;32;68169;-63
2022/12/05 16:36:12;;;;;;;15.98;9.75;;;;;;;;;;4410543;32;60157;-65
2022/12/05 16:39:06;;;;;;;14.65;8.93;;;;;;;;;;4369558;32;71857;-63
2022/12/05 16:41:53;;;;;;;17.33;9.45;;;;;;;;;;4387878;32;68373;-63
2022/12/05 16:44:46;;;;;;;18.12;10.65;;;;;;;;;;4377235;32;66406;-64
2022/12/05 16:47:44;;;;;;;18.92;10.95;;;;;;;;;;4374481;32;60362;-63
2022/12/05 16:50:36;;;;;;;23.23;11.30;;;;;;;;;;4387745;32;71063;-65
2022/12/05 16:53:29;;;;;;;21.02;11.40;;;;;;;;;;4388459;32;69384;-63
2022/12/05 16:56:17;;;;;;;23.73;11.10;;;;;;;;;;4387870;32;67674;-64
2022/12/05 16:59:04;;;;;;;19.08;10.90;;;;;;;;;;4385210;32;71273;-65
2022/12/05 17:01:51;;;;;;;16.45;9.88;;;;;;;;;;4363844;32;66983;-64
2022/12/05 17:04:38;;;;;;;18.60;11.00;;;;;;;;;;4387858;32;67552;-64
2022/12/05 17:07:25;;;;;;;22.40;10.88;;;;;;;;;;4374515;32;60913;-64
2022/12/05 17:10:12;;;;;;;20.02;10.70;;;;;;;;;;4387515;32;70430;-64
2022/12/05 17:13:00;;;;;;;22.42;10.95;;;;;;;;;;4384977;32;66281;-65
2022/12/05 17:15:47;;;;;;;19.27;11.50;;;;;;;;;;4399627;32;67550;-65
2022/12/05 17:18:33;;;;;;;19.30;10.95;;;;;;;;;;4363856;32;60829;-65
2022/12/05 17:21:23;;;;;;;22.55;12.68;;;;;;;;;;4399734;32;70713;-64
2022/12/05 17:24:17;;;;;;;25.55;15.73;;;;;;;;;;4376750;32;68198;-64
2022/12/05 17:27:07;;;;;;;27.02;13.65;;;;;;;;;;4387301;32;67489;-63